CDT,Max TemperatureF,Mean TemperatureF,Min TemperatureF,Max Dew PointF,MeanDew PointF,Min DewpointF,Max Humidity, Mean Humidity, Min Humidity, Max Sea Level PressureIn, Mean Sea Level PressureIn, Min Sea Level PressureIn, Max VisibilityMiles, Mean VisibilityMiles, Min VisibilityMiles, Max Wind SpeedMPH, Mean Wind SpeedMPH, Max Gust SpeedMPH,PrecipitationIn, CloudCover, Events, WindDirDegrees
2011-10-1,74,60,45,36,34,33,65,45,25,30.20,30.11,30.01,10,10,10,26,18,37,0.00,0,,160
2011-10-2,83,68,52,42,38,35,54,39,23,30.05,30.01,29.96,10,10,2,18,12,24,0.00,0,,155
2011-10-3,85,72,58,41,40,38,51,36,20,30.04,30.01,29.98,10,10,10,22,13,29,0.00,0,,154
2011-10-4,86,74,61,45,41,38,46,34,21,30.02,29.94,29.86,10,10,10,23,15,31,0.00,0,,151
2011-10-5,89,77,64,47,44,40,52,36,19,29.88,29.85,29.81,10,10,10,28,16,38,0.00,0,,154
2011-10-6,83,74,64,43,40,37,40,32,23,29.87,29.80,29.71,10,10,10,35,22,47,0.00,0,,148
2011-10-7,79,71,62,54,41,26,53,34,15,29.71,29.62,29.54,10,10,10,45,26,54,T,3,Rain,176
2011-10-8,68,61,53,47,45,42,72,59,45,30.17,29.98,29.73,10,10,10,17,10,22,0.00,3,,252
2011-10-9,65,56,47,57,49,39,93,80,66,30.26,30.15,29.98,10,8,2,16,8,22,0.32,5,Rain,36
2011-10-10,65,59,53,57,53,48,93,78,63,29.96,29.85,29.75,10,8,1,21,11,25,0.49,6,Rain,178
2011-10-11,75,62,49,53,48,45,86,62,38,29.77,29.71,29.65,10,10,10,15,10,22,0.00,0,,162
2011-10-12,71,61,51,52,49,45,80,62,44,29.71,29.66,29.63,10,10,10,18,11,23,0.00,2,,228
2011-10-13,62,54,46,45,43,39,86,65,43,29.75,29.72,29.67,10,10,9,23,12,32,0.01,4,Rain,306
2011-10-14,55,48,40,45,39,35,86,68,50,29.88,29.81,29.72,10,10,2,28,13,35,0.05,6,Rain,307
2011-10-15,57,48,38,37,35,33,85,63,40,29.91,29.87,29.84,10,10,7,20,12,24,0.00,1,,279
2011-10-16,55,48,40,37,32,27,85,60,35,29.94,29.90,29.85,10,10,10,32,18,39,0.00,1,,284
2011-10-17,57,46,35,30,28,22,76,51,25,30.02,29.93,29.88,10,10,10,29,15,36,0.00,0,,304
2011-10-18,50,39,28,30,24,17,70,51,31,30.22,30.13,30.02,10,10,10,24,15,32,0.00,2,,340
2011-10-19,48,38,27,29,26,18,78,64,49,30.28,30.23,30.18,10,10,10,15,9,22,0.00,3,,8
2011-10-20,53,38,22,32,25,18,88,65,41,30.18,30.09,29.98,10,8,0,8,3,9,0.00,1,Fog,307
2011-10-21,61,48,35,38,32,27,70,55,39,30.09,29.99,29.93,10,10,9,18,9,22,0.00,0,,263
2011-10-22,65,47,29,42,34,25,82,60,37,30.13,30.01,29.80,10,9,7,22,9,25,0.00,1,,179
2011-10-23,60,49,37,41,37,32,79,57,35,29.93,29.84,29.78,10,10,5,17,8,22,0.06,3,Rain,265
2011-10-24,57,47,37,35,33,31,85,63,41,30.04,30.00,29.94,10,10,10,10,4,14,T,5,Rain,46
2011-10-25,53,48,43,37,33,30,65,55,44,30.08,30.03,29.98,10,10,7,13,4,15,0.01,7,Rain,27
2011-10-26,53,43,33,38,33,27,82,62,42,30.17,30.11,30.06,10,10,10,18,7,22,T,6,Rain,320
2011-10-27,51,38,24,31,26,20,89,63,36,30.10,30.05,29.99,10,10,10,15,6,21,T,2,Rain,193
2011-10-28,54,41,28,28,25,20,78,54,29,30.08,30.05,29.99,10,10,10,21,9,25,0.00,1,,281
2011-10-29,52,38,23,28,23,18,81,56,30,30.05,29.94,29.80,10,10,10,21,10,26,0.00,3,,161
2011-10-30,44,40,36,34,31,24,79,64,49,30.01,29.89,29.79,10,10,10,20,10,23,0.00,7,,290
2011-10-31,59,45,30,32,29,25,78,57,35,30.01,29.87,29.74,10,10,10,25,12,31,T,2,,175